createdAt,value
2017-12-02T00:02:17.920Z,45.40
2017-12-02T00:05:19.228Z,50.33
2017-12-02T00:08:20.604Z,50.57
2017-12-02T00:11:22.168Z,49.00
2017-12-02T00:14:23.520Z,45.80
2017-12-02T00:17:24.914Z,47.47
2017-12-02T00:20:26.269Z,55.83
2017-12-02T00:23:27.680Z,55.70
2017-12-02T00:26:29.820Z,45.80
2017-12-02T00:29:31.235Z,46.13
2017-12-02T00:32:32.616Z,44.83
2017-12-02T00:35:34.016Z,52.87
2017-12-02T00:38:36.321Z,42.57
2017-12-02T00:41:37.728Z,47.90
2017-12-02T00:44:39.158Z,45.50
2017-12-02T00:47:41.328Z,58.57
2017-12-02T00:50:42.883Z,61.67
2017-12-02T00:53:44.221Z,55.60
2017-12-02T00:56:45.586Z,51.77
2017-12-02T00:59:47.676Z,60.10
2017-12-02T01:02:49.799Z,57.97
2017-12-02T01:05:51.184Z,57.07
2017-12-02T01:08:52.590Z,56.60
2017-12-02T01:11:55.358Z,49.10
2017-12-02T01:14:56.823Z,61.43
2017-12-02T01:17:58.220Z,64.47
2017-12-02T01:20:59.619Z,52.40
2017-12-02T01:24:01.084Z,57.40
2017-12-02T01:27:02.506Z,53.23
2017-12-02T01:30:04.701Z,53.03
2017-12-02T01:33:06.140Z,47.87
2017-12-02T01:36:07.498Z,51.80
2017-12-02T01:39:08.872Z,51.80
2017-12-02T01:42:10.251Z,56.20
2017-12-02T01:45:11.659Z,63.23
2017-12-02T01:48:13.092Z,49.80
2017-12-02T01:51:14.428Z,64.27
2017-12-02T01:54:16.556Z,54.20
2017-12-02T01:57:17.900Z,58.13
2017-12-02T02:00:19.303Z,62.37
2017-12-02T02:03:21.361Z,63.50
2017-12-02T02:06:26.605Z,56.73
2017-12-02T02:09:28.744Z,61.90
2017-12-02T02:12:30.152Z,52.20
2017-12-02T02:15:31.560Z,53.03
2017-12-02T02:18:33.172Z,53.40
2017-12-02T02:21:34.560Z,53.83
2017-12-02T02:24:35.975Z,48.73
2017-12-02T02:27:37.352Z,53.77
2017-12-02T02:30:38.720Z,52.10
2017-12-02T02:33:40.093Z,55.90
2017-12-02T02:36:42.217Z,58.30
2017-12-02T02:39:44.296Z,57.27
2017-12-02T02:42:45.726Z,55.13
2017-12-02T02:45:47.058Z,53.97
2017-12-02T02:48:49.024Z,47.83
2017-12-02T02:51:50.373Z,50.53
2017-12-02T02:54:51.778Z,66.00
2017-12-02T02:57:53.139Z,48.53
2017-12-02T03:00:55.280Z,56.53
2017-12-02T03:03:56.677Z,56.10
2017-12-02T03:06:58.027Z,46.17
2017-12-02T03:10:02.556Z,51.67
2017-12-02T03:13:03.968Z,59.70
2017-12-02T03:16:05.431Z,51.80
2017-12-02T03:19:07.516Z,57.57
2017-12-02T03:22:09.673Z,54.00
2017-12-02T03:25:13.152Z,55.57
2017-12-02T03:28:15.588Z,55.40
2017-12-02T03:31:17.005Z,54.00
2017-12-02T03:34:19.149Z,69.90
2017-12-02T03:37:20.536Z,58.83
2017-12-02T03:40:21.939Z,63.67
2017-12-02T03:43:23.387Z,65.80
2017-12-02T03:46:25.492Z,63.40
2017-12-02T03:49:26.917Z,66.80
2017-12-02T03:52:28.356Z,64.67
2017-12-02T03:55:29.797Z,77.63
2017-12-02T03:58:31.220Z,78.80
2017-12-02T04:01:32.642Z,74.63
2017-12-02T04:04:34.044Z,86.87
2017-12-02T04:07:35.445Z,93.83
2017-12-02T04:10:36.908Z,110.10
2017-12-02T04:13:39.031Z,106.00
2017-12-02T04:16:40.509Z,95.43
2017-12-02T04:19:41.965Z,95.00
2017-12-02T04:22:43.338Z,89.10
2017-12-02T04:25:45.488Z,119.23
2017-12-02T04:28:46.963Z,107.57
2017-12-02T04:31:49.172Z,270.13
2017-12-02T04:34:50.558Z,116.03
2017-12-02T04:37:51.949Z,116.13
2017-12-02T04:40:53.448Z,112.40
2017-12-02T04:43:54.856Z,112.27
2017-12-02T04:46:56.263Z,139.13
2017-12-02T04:49:58.150Z,149.77
2017-12-02T04:52:59.997Z,196.53
2017-12-02T04:56:02.538Z,121.70
2017-12-02T04:59:03.977Z,116.87
2017-12-02T05:02:05.516Z,112.93
2017-12-02T05:05:06.980Z,112.40
2017-12-02T05:08:08.368Z,118.97
2017-12-02T05:11:09.772Z,95.90
2017-12-02T05:14:11.152Z,98.77
2017-12-02T05:17:12.672Z,108.87
2017-12-02T05:20:14.095Z,113.80
2017-12-02T05:23:15.501Z,111.13
2017-12-02T05:26:16.957Z,109.80
2017-12-02T05:29:18.408Z,127.03
2017-12-02T05:32:19.812Z,138.00
2017-12-02T05:35:21.937Z,122.13
2017-12-02T05:38:23.321Z,129.80
2017-12-02T05:41:24.720Z,106.50
2017-12-02T05:44:26.148Z,99.63
2017-12-02T05:47:28.291Z,76.80
2017-12-02T05:50:29.691Z,77.87
2017-12-02T05:53:31.104Z,91.03
2017-12-02T05:56:32.470Z,95.03
2017-12-02T05:59:34.646Z,94.40
2017-12-02T06:02:36.024Z,89.87
2017-12-02T06:05:37.549Z,101.30
2017-12-02T06:08:39.007Z,102.33
2017-12-02T06:11:40.397Z,93.53
2017-12-02T06:14:41.813Z,86.53
2017-12-02T06:17:43.366Z,104.57
2017-12-02T06:20:44.931Z,104.17
2017-12-02T06:23:46.335Z,98.63
2017-12-02T06:26:47.744Z,111.03
2017-12-02T06:29:49.155Z,97.70
2017-12-02T06:32:51.283Z,91.90
2017-12-02T06:35:52.768Z,78.03
2017-12-02T06:38:54.158Z,87.17
2017-12-02T06:41:55.560Z,81.63
2017-12-02T06:44:56.940Z,102.30
2017-12-02T06:47:59.053Z,105.47
2017-12-02T06:51:00.452Z,105.03
2017-12-02T06:54:02.644Z,111.97
2017-12-02T06:57:04.052Z,120.50
2017-12-02T07:00:05.484Z,118.73
2017-12-02T07:03:06.915Z,125.50
2017-12-02T07:06:08.341Z,98.00
2017-12-02T07:09:10.492Z,108.70
2017-12-02T07:12:12.652Z,115.63
2017-12-02T07:15:14.052Z,111.03
2017-12-02T07:18:15.485Z,112.33
2017-12-02T07:21:16.899Z,114.03
2017-12-02T07:24:18.380Z,124.63
2017-12-02T07:27:20.504Z,144.60
2017-12-02T07:30:21.932Z,105.33
2017-12-02T07:33:23.348Z,121.00
2017-12-02T07:36:25.505Z,92.03
2017-12-02T07:39:27.281Z,106.10
2017-12-02T07:42:28.677Z,106.07
2017-12-02T07:45:30.092Z,118.10
2017-12-02T07:48:32.347Z,95.83
2017-12-02T07:51:34.501Z,99.83
2017-12-02T07:54:36.093Z,104.23
2017-12-02T07:57:37.504Z,100.87
2017-12-02T08:00:38.932Z,97.83
2017-12-02T08:03:40.339Z,84.83
2017-12-02T08:06:41.751Z,90.70
2017-12-02T08:09:43.144Z,93.07
2017-12-02T08:12:44.585Z,90.00
2017-12-02T08:15:46.843Z,112.27
2017-12-02T08:18:48.269Z,92.40
2017-12-02T08:21:49.682Z,101.17
2017-12-02T08:24:51.068Z,117.77
2017-12-02T08:27:52.484Z,111.80
2017-12-02T08:30:54.304Z,124.90
2017-12-02T08:33:55.755Z,105.00
2017-12-02T08:36:57.192Z,94.03
2017-12-02T08:39:58.611Z,89.90
2017-12-02T08:42:59.996Z,86.23
2017-12-02T08:46:01.424Z,103.73
2017-12-02T08:49:02.792Z,83.10
2017-12-02T08:52:04.265Z,114.53
2017-12-02T08:55:05.660Z,96.50
2017-12-02T08:58:07.154Z,99.87
2017-12-02T09:01:08.559Z,85.93
2017-12-02T09:04:10.137Z,98.70
2017-12-02T09:07:11.564Z,84.90
2017-12-02T09:10:12.980Z,76.70
2017-12-02T09:13:14.412Z,70.77
2017-12-02T09:16:15.826Z,68.07
2017-12-02T09:19:17.213Z,58.10
2017-12-02T09:22:18.617Z,57.03
2017-12-02T10:06:07.691Z,65.67
2017-12-02T10:09:09.288Z,64.37
2017-12-02T10:12:11.466Z,70.10
2017-12-02T10:15:12.900Z,61.60
2017-12-02T10:18:15.026Z,74.47
2017-12-02T10:21:16.435Z,82.97
2017-12-02T10:24:18.603Z,79.57
2017-12-02T10:27:20.796Z,73.87
2017-12-02T10:30:22.384Z,76.27
2017-12-02T10:33:24.103Z,75.60
2017-12-02T10:36:25.497Z,75.67
2017-12-02T10:39:26.899Z,94.50
2017-12-02T10:42:29.017Z,95.20
2017-12-02T10:45:30.447Z,91.47
2017-12-02T10:48:31.928Z,102.63
2017-12-02T10:51:33.448Z,110.73
2017-12-02T10:54:34.899Z,98.77
2017-12-02T10:57:36.323Z,116.83
2017-12-02T11:00:38.479Z,100.53
2017-12-02T11:03:39.913Z,90.70
2017-12-02T11:06:41.282Z,128.20
2017-12-02T11:09:42.672Z,89.90
2017-12-02T11:12:44.100Z,97.83
2017-12-02T11:15:46.294Z,82.67
2017-12-02T11:18:47.747Z,83.20
2017-12-02T11:21:49.139Z,90.50
2017-12-02T11:24:50.555Z,79.00
2017-12-02T11:27:51.952Z,99.27
2017-12-02T11:30:53.388Z,92.13
2017-12-02T11:33:54.789Z,92.70
2017-12-02T11:36:56.919Z,77.73
2017-12-02T11:39:58.403Z,157.27
2017-12-02T11:43:00.540Z,126.33
2017-12-02T11:46:01.995Z,132.07
2017-12-02T11:49:03.374Z,354.27
2017-12-02T11:52:05.547Z,83.80
2017-12-02T11:55:07.656Z,64.70
2017-12-02T11:58:09.072Z,66.93
2017-12-02T12:01:11.230Z,64.33
2017-12-02T12:04:13.364Z,125.00
2017-12-02T12:07:14.712Z,70.97
2017-12-02T12:10:16.064Z,68.30
2017-12-02T12:13:17.482Z,54.77
2017-12-02T12:16:18.818Z,48.90
2017-12-02T12:19:20.189Z,48.70
2017-12-02T12:22:21.528Z,70.67
2017-12-02T12:25:22.948Z,52.93
2017-12-02T12:28:25.044Z,53.50
2017-12-02T12:31:26.412Z,44.67
2017-12-02T12:34:27.845Z,44.40
2017-12-02T12:37:29.202Z,49.20
2017-12-02T12:40:30.558Z,44.37
2017-12-02T12:43:31.900Z,42.03
2017-12-02T12:46:33.291Z,36.87
2017-12-02T12:49:34.684Z,50.80
2017-12-02T12:52:36.871Z,41.93
2017-12-02T12:55:38.238Z,46.80
2017-12-02T12:58:39.656Z,43.83
2017-12-02T13:01:41.831Z,36.73
2017-12-02T13:04:43.193Z,43.47
2017-12-02T13:07:44.608Z,45.93
2017-12-02T13:10:45.986Z,51.57
2017-12-02T13:13:47.394Z,40.83
2017-12-02T13:16:49.462Z,43.73
2017-12-02T13:19:50.839Z,42.43
2017-12-02T13:22:52.918Z,41.37
2017-12-02T13:25:55.073Z,47.93
2017-12-02T13:28:56.434Z,41.77
2017-12-02T13:31:58.555Z,53.00
2017-12-02T13:34:59.923Z,46.17
2017-12-02T13:38:01.297Z,42.10
2017-12-02T13:41:03.460Z,48.73
2017-12-02T13:44:04.816Z,43.00
2017-12-02T13:47:07.009Z,48.83
2017-12-02T13:50:08.440Z,50.33
2017-12-02T13:53:10.568Z,46.83
2017-12-02T13:56:11.921Z,44.47
2017-12-02T13:59:13.320Z,40.50
2017-12-02T14:02:15.445Z,46.03
2017-12-02T14:05:16.848Z,43.77
2017-12-02T14:08:18.192Z,43.07
2017-12-02T14:11:20.276Z,58.77
2017-12-02T14:14:21.673Z,51.60
2017-12-02T14:17:23.056Z,48.67
2017-12-02T14:20:25.167Z,47.00
2017-12-02T14:23:26.544Z,57.30
2017-12-02T14:26:27.960Z,51.30
2017-12-02T14:29:29.314Z,41.77
2017-12-02T14:32:30.691Z,40.53
2017-12-02T14:35:32.039Z,39.43
2017-12-02T14:38:33.413Z,39.60
2017-12-02T14:41:34.749Z,44.77
2017-12-02T14:44:36.126Z,57.00
2017-12-02T14:47:38.264Z,60.70
2017-12-02T14:50:39.667Z,56.20
2017-12-02T14:53:41.088Z,55.37
2017-12-02T14:56:43.202Z,49.20
2017-12-02T14:59:44.600Z,48.50
2017-12-02T15:02:45.953Z,55.13
2017-12-02T15:05:47.360Z,46.50
2017-12-02T15:08:49.632Z,63.57
2017-12-02T15:11:51.094Z,51.33
2017-12-02T15:14:52.576Z,53.97
2017-12-02T15:17:53.904Z,51.80
2017-12-02T15:20:55.300Z,67.10
2017-12-02T15:23:57.427Z,53.83
2017-12-02T15:26:58.855Z,57.60
2017-12-02T15:30:00.205Z,58.53
2017-12-02T15:33:01.552Z,44.77
2017-12-02T15:36:02.956Z,51.47
2017-12-02T15:39:04.407Z,55.00
2017-12-02T15:42:05.768Z,60.90
2017-12-02T15:45:07.925Z,44.87
2017-12-02T15:48:09.375Z,55.60
2017-12-02T15:51:10.772Z,49.93
2017-12-02T15:54:12.229Z,50.43
2017-12-02T15:57:13.643Z,46.77
2017-12-02T16:00:15.860Z,51.20
2017-12-02T16:03:17.287Z,45.73
2017-12-02T16:06:18.776Z,52.03
2017-12-02T16:09:20.136Z,44.50
2017-12-02T16:12:21.547Z,57.10
2017-12-02T16:15:22.948Z,55.40
2017-12-02T16:18:24.349Z,41.93
2017-12-02T16:21:25.760Z,38.90
2017-12-02T16:24:27.148Z,45.77
2017-12-02T16:27:28.832Z,46.43
2017-12-02T16:30:30.250Z,59.10
2017-12-02T16:33:32.365Z,39.87
2017-12-02T16:36:33.709Z,49.20
2017-12-02T16:39:35.144Z,49.80
2017-12-02T16:42:36.537Z,56.80
2017-12-02T16:45:37.990Z,42.87
2017-12-02T16:48:39.407Z,47.37
2017-12-02T16:51:40.790Z,49.70
2017-12-02T16:54:42.191Z,47.77
2017-12-02T16:57:43.601Z,44.60
2017-12-02T17:00:45.012Z,43.30
2017-12-02T17:03:46.407Z,42.30
2017-12-02T17:06:47.807Z,38.57
2017-12-02T17:09:49.213Z,43.13
2017-12-02T17:12:50.670Z,43.70
2017-12-02T17:15:52.788Z,39.17
2017-12-02T17:18:54.216Z,42.83
2017-12-02T17:21:55.635Z,39.27
2017-12-02T17:24:57.072Z,41.63
2017-12-02T17:27:58.452Z,49.20
2017-12-02T17:31:00.638Z,44.90
2017-12-02T17:34:02.048Z,42.67
2017-12-02T17:37:03.493Z,46.10
2017-12-02T17:40:04.921Z,49.40
2017-12-02T17:43:06.356Z,40.37
2017-12-02T17:46:07.824Z,42.50
2017-12-02T17:49:09.231Z,49.87
2017-12-02T17:52:11.345Z,45.60
2017-12-02T17:55:12.748Z,53.07
2017-12-02T17:58:14.908Z,43.93
2017-12-02T18:01:16.273Z,47.70
2017-12-02T18:04:18.446Z,50.07
2017-12-02T18:07:20.556Z,37.50
2017-12-02T18:10:21.913Z,40.40
2017-12-02T18:13:24.116Z,44.63
2017-12-02T18:16:25.489Z,47.60
2017-12-02T18:19:27.807Z,46.23
2017-12-02T18:22:29.140Z,50.23
2017-12-02T18:25:30.493Z,46.00
2017-12-02T18:28:32.184Z,40.10
2017-12-02T18:31:40.448Z,46.33
2017-12-02T18:34:41.873Z,46.10
2017-12-02T18:37:43.975Z,44.40
2017-12-02T18:40:45.380Z,51.33
2017-12-02T18:43:46.732Z,60.57
2017-12-02T18:46:48.118Z,52.07
2017-12-02T18:49:49.503Z,48.97
2017-12-02T18:52:50.903Z,52.67
2017-12-02T18:55:53.055Z,47.57
2017-12-02T18:58:54.385Z,55.03
2017-12-02T19:01:55.778Z,44.67
2017-12-02T19:04:57.875Z,56.87
2017-12-02T19:07:59.252Z,86.30
2017-12-02T19:11:00.584Z,88.00
2017-12-02T19:14:02.012Z,50.07
2017-12-02T19:17:03.399Z,71.40
2017-12-02T19:20:04.813Z,57.73
2017-12-02T19:23:06.231Z,61.23
2017-12-02T19:26:07.620Z,53.00
2017-12-02T19:29:09.063Z,67.00
2017-12-02T19:32:10.491Z,64.30
2017-12-02T19:35:12.669Z,80.17
2017-12-02T19:38:14.822Z,62.13
2017-12-02T19:41:16.204Z,49.90
2017-12-02T19:44:17.557Z,66.43
2017-12-02T19:47:18.997Z,56.43
2017-12-02T19:50:21.264Z,56.17
2017-12-02T19:53:23.382Z,93.93
2017-12-02T19:56:24.839Z,69.67
2017-12-02T19:59:26.354Z,61.80
2017-12-02T20:02:28.530Z,53.17
2017-12-02T20:05:29.952Z,71.57
2017-12-02T20:08:31.429Z,71.37
2017-12-02T20:11:33.603Z,55.20
2017-12-02T20:14:35.096Z,64.17
2017-12-02T20:17:36.596Z,74.70
2017-12-02T20:20:38.720Z,54.70
2017-12-02T20:23:40.222Z,56.80
2017-12-02T20:26:41.634Z,69.27
2017-12-02T20:29:43.032Z,66.03
2017-12-02T20:32:45.177Z,72.40
2017-12-02T20:35:46.573Z,64.00
2017-12-02T20:38:47.934Z,61.10
2017-12-02T20:41:49.368Z,85.97
2017-12-02T20:44:50.783Z,68.47
2017-12-02T20:47:52.144Z,60.00
2017-12-02T20:50:53.560Z,52.00
2017-12-02T20:53:54.955Z,64.90
2017-12-02T20:56:56.349Z,79.47
2017-12-02T20:59:57.773Z,62.70
2017-12-02T21:02:59.179Z,59.23
2017-12-02T21:06:00.724Z,52.10
2017-12-02T21:09:02.172Z,60.37
2017-12-02T21:12:03.730Z,57.33
2017-12-02T21:15:05.201Z,62.50
2017-12-02T21:18:07.386Z,60.13
2017-12-02T21:21:08.803Z,62.33
2017-12-02T21:24:10.312Z,69.60
2017-12-02T21:27:11.740Z,65.70
2017-12-02T21:30:13.222Z,63.17
2017-12-02T21:33:14.766Z,62.70
2017-12-02T21:36:16.256Z,59.40
2017-12-02T21:39:17.807Z,63.63
2017-12-02T21:42:20.067Z,55.33
2017-12-02T21:45:21.521Z,54.57
2017-12-02T21:48:22.995Z,64.80
2017-12-02T21:51:27.268Z,63.57
2017-12-02T21:54:28.888Z,62.93
2017-12-02T21:57:30.734Z,72.40
2017-12-02T22:00:32.925Z,53.63
2017-12-02T22:03:37.310Z,67.33
2017-12-02T22:06:39.584Z,53.40
2017-12-02T22:09:41.096Z,58.70
2017-12-02T22:12:42.652Z,57.00
2017-12-02T22:15:44.306Z,69.37
2017-12-02T22:18:47.672Z,59.37
2017-12-02T22:21:49.144Z,56.93
2017-12-02T22:24:51.488Z,57.33
2017-12-02T22:27:54.876Z,63.03
2017-12-02T22:30:57.464Z,60.47
2017-12-02T22:33:58.952Z,63.93
2017-12-02T22:37:02.256Z,53.83
2017-12-02T22:40:04.476Z,61.47
2017-12-02T22:43:06.049Z,60.77
2017-12-02T22:46:09.674Z,73.43
2017-12-02T22:49:11.999Z,65.77
2017-12-02T22:52:14.637Z,55.87
2017-12-02T22:55:19.019Z,52.97
2017-12-02T22:58:22.695Z,55.37
2017-12-02T23:01:25.096Z,72.60
2017-12-02T23:04:32.182Z,54.70
2017-12-02T23:07:35.753Z,80.73
2017-12-02T23:10:37.303Z,58.27
2017-12-02T23:13:38.875Z,59.27
2017-12-02T23:16:40.434Z,66.27
2017-12-02T23:19:41.891Z,63.60
2017-12-02T23:22:43.321Z,58.17
2017-12-02T23:25:44.910Z,58.50
2017-12-02T23:28:46.344Z,71.33
2017-12-02T23:31:47.770Z,70.03
2017-12-02T23:34:50.058Z,68.07
2017-12-02T23:37:51.539Z,71.90
2017-12-02T23:40:52.975Z,64.00
2017-12-02T23:43:54.324Z,58.70
2017-12-02T23:46:55.795Z,51.60
2017-12-02T23:49:57.159Z,52.93
2017-12-02T23:52:58.565Z,57.77
2017-12-02T23:55:59.961Z,55.30
2017-12-02T23:59:01.351Z,45.80
